createdAt,value
2022-11-12T00:00:53.838Z,12.13
2022-11-12T00:03:21.209Z,14.00
2022-11-12T00:05:49.437Z,10.25
2022-11-12T00:08:16.600Z,14.27
2022-11-12T00:10:43.816Z,10.48
2022-11-12T00:13:10.217Z,11.52
2022-11-12T00:15:36.718Z,9.85
2022-11-12T00:18:03.409Z,13.30
2022-11-12T00:20:29.862Z,11.75
2022-11-12T00:22:56.439Z,13.82
2022-11-12T00:25:22.894Z,12.50
2022-11-12T00:27:49.424Z,10.65
2022-11-12T00:30:16.240Z,15.80
2022-11-12T00:32:42.733Z,12.07
2022-11-12T00:35:13.486Z,11.50
2022-11-12T00:37:40.724Z,9.68
2022-11-12T00:40:08.033Z,11.55
2022-11-12T00:42:34.679Z,8.68
2022-11-12T00:45:01.193Z,13.40
2022-11-12T00:47:27.650Z,13.98
2022-11-12T00:49:54.192Z,9.35
2022-11-12T00:52:20.747Z,12.30
2022-11-12T00:54:47.158Z,7.97
2022-11-12T00:57:13.577Z,11.10
2022-11-12T00:59:39.973Z,12.10
2022-11-12T01:02:06.477Z,12.75
2022-11-12T01:04:33.813Z,7.90
2022-11-12T01:07:00.282Z,13.23
2022-11-12T01:09:26.771Z,11.38
2022-11-12T01:11:53.168Z,8.75
2022-11-12T01:14:19.589Z,11.93
2022-11-12T01:16:46.002Z,12.95
2022-11-12T01:19:13.725Z,9.82
2022-11-12T01:21:43.114Z,9.07
2022-11-12T01:24:10.719Z,10.45
2022-11-12T01:26:38.005Z,11.85
2022-11-12T01:29:05.088Z,11.38
2022-11-12T01:31:36.418Z,11.88
2022-11-12T01:34:06.006Z,11.02
2022-11-12T01:36:39.375Z,11.07
2022-11-12T01:39:08.974Z,11.45
2022-11-12T01:41:38.447Z,8.85
2022-11-12T01:44:08.836Z,7.85
2022-11-12T01:46:43.769Z,9.05
2022-11-12T01:49:16.020Z,15.52
2022-11-12T01:51:46.953Z,10.25
2022-11-12T01:54:18.109Z,15.52
2022-11-12T01:56:44.907Z,13.85
2022-11-12T01:59:19.779Z,13.77
2022-11-12T02:01:46.208Z,10.85
2022-11-12T02:04:12.847Z,11.93
2022-11-12T02:07:22.516Z,7.47
2022-11-12T02:09:49.022Z,12.50
2022-11-12T02:12:35.809Z,11.65
2022-11-12T02:15:03.671Z,11.05
2022-11-12T02:17:30.095Z,9.43
2022-11-12T02:19:59.483Z,8.38
2022-11-12T02:22:25.889Z,9.82
2022-11-12T02:24:52.289Z,8.57
2022-11-12T02:27:19.005Z,12.93
2022-11-12T02:29:48.211Z,7.78
2022-11-12T02:32:14.735Z,9.05
2022-11-12T02:34:41.509Z,11.40
2022-11-12T02:37:07.996Z,9.18
2022-11-12T02:39:34.441Z,9.65
2022-11-12T02:42:00.852Z,9.25
2022-11-12T02:44:27.377Z,8.55
2022-11-12T02:46:53.777Z,12.85
2022-11-12T02:49:20.169Z,12.75
2022-11-12T02:51:46.631Z,6.95
2022-11-12T02:54:13.065Z,7.60
2022-11-12T02:56:39.598Z,6.95
2022-11-12T02:59:06.006Z,9.38
2022-11-12T03:01:32.474Z,10.70
2022-11-12T03:03:59.520Z,11.05
2022-11-12T03:06:25.961Z,6.72
2022-11-12T03:08:52.340Z,6.80
2022-11-12T03:11:18.758Z,10.75
2022-11-12T03:13:45.303Z,10.90
2022-11-12T03:16:11.738Z,13.07
2022-11-12T03:18:38.141Z,7.32
2022-11-12T03:21:05.099Z,9.60
2022-11-12T03:23:31.940Z,8.90
2022-11-12T03:25:58.892Z,9.80
2022-11-12T03:28:25.731Z,10.90
2022-11-12T03:30:57.502Z,8.20
2022-11-12T03:35:50.403Z,8.13
2022-11-12T03:38:16.845Z,6.82
2022-11-12T03:40:43.228Z,6.97
2022-11-12T03:43:09.775Z,5.63
2022-11-12T03:45:36.462Z,6.53
2022-11-12T03:48:03.044Z,8.45
2022-11-12T03:50:30.349Z,8.93
2022-11-12T03:52:58.573Z,11.52
2022-11-12T03:55:27.516Z,9.63
2022-11-12T03:57:55.133Z,6.55
2022-11-12T04:00:23.026Z,9.30
2022-11-12T04:02:49.780Z,9.13
2022-11-12T04:05:34.976Z,10.05
2022-11-12T04:08:24.350Z,7.75
2022-11-12T04:10:51.502Z,21.38
2022-11-12T04:13:30.049Z,13.30
2022-11-12T04:16:25.518Z,11.85
2022-11-12T04:19:13.261Z,8.82
2022-11-12T04:21:51.500Z,7.55
2022-11-12T04:24:39.913Z,12.48
2022-11-12T04:27:07.712Z,11.68
2022-11-12T04:29:52.570Z,14.77
2022-11-12T04:32:19.000Z,9.57
2022-11-12T04:34:45.484Z,11.90
2022-11-12T04:37:11.941Z,8.57
2022-11-12T04:39:38.346Z,7.82
2022-11-12T04:42:23.940Z,11.02
2022-11-12T04:45:16.513Z,11.82
2022-11-12T04:47:46.296Z,8.07
2022-11-12T04:50:17.883Z,13.48
2022-11-12T04:55:11.576Z,8.13
2022-11-12T04:57:38.490Z,9.40
2022-11-12T05:00:05.796Z,12.88
2022-11-12T05:02:32.225Z,10.77
2022-11-12T05:04:58.636Z,11.52
2022-11-12T05:07:25.072Z,8.90
2022-11-12T05:09:51.487Z,13.38
2022-11-12T05:12:18.041Z,7.43
2022-11-12T05:14:44.427Z,13.85
2022-11-12T05:17:10.899Z,7.43
2022-11-12T05:19:37.371Z,8.32
2022-11-12T05:22:06.945Z,10.63
2022-11-12T05:24:42.630Z,11.45
2022-11-12T05:27:20.803Z,9.48
2022-11-12T05:29:47.656Z,9.07
2022-11-12T05:32:16.059Z,7.97
2022-11-12T05:34:42.760Z,8.48
2022-11-12T05:37:10.645Z,8.88
2022-11-12T05:39:37.408Z,9.95
2022-11-12T05:42:13.461Z,10.13
2022-11-12T05:44:41.192Z,9.57
2022-11-12T05:47:07.702Z,13.38
2022-11-12T05:49:34.101Z,8.98
2022-11-12T05:52:00.575Z,7.90
2022-11-12T05:54:26.952Z,11.27
2022-11-12T05:56:53.726Z,10.18
2022-11-12T05:59:20.521Z,13.48
2022-11-12T06:01:46.951Z,10.02
2022-11-12T06:04:14.790Z,11.80
2022-11-12T06:06:42.436Z,8.02
2022-11-12T06:09:09.816Z,7.78
2022-11-12T06:11:37.207Z,8.60
2022-11-12T06:14:04.566Z,14.77
2022-11-12T06:16:31.729Z,11.95
2022-11-12T06:18:58.581Z,18.83
2022-11-12T06:21:27.246Z,19.95
2022-11-12T06:23:59.632Z,10.68
2022-11-12T06:26:28.497Z,13.80
2022-11-12T06:28:55.682Z,12.95
2022-11-12T06:31:22.959Z,14.88
2022-11-12T06:33:50.188Z,20.63
2022-11-12T06:36:18.856Z,9.68
2022-11-12T06:38:45.740Z,14.30
2022-11-12T06:41:13.755Z,14.50
2022-11-12T06:43:40.967Z,11.73
2022-11-12T06:46:12.710Z,12.15
2022-11-12T06:48:39.446Z,10.90
2022-11-12T06:51:07.948Z,8.65
2022-11-12T06:53:34.424Z,9.65
2022-11-12T06:56:05.928Z,11.15
2022-11-12T06:58:32.551Z,12.27
2022-11-12T07:01:12.146Z,13.75
2022-11-12T07:03:40.123Z,14.40
2022-11-12T07:06:10.033Z,12.32
2022-11-12T07:08:36.999Z,12.90
2022-11-12T07:11:03.996Z,9.65
2022-11-12T07:13:32.498Z,10.38
2022-11-12T07:16:00.497Z,9.98
2022-11-12T07:18:28.445Z,10.68
2022-11-12T07:21:04.135Z,14.90
2022-11-12T07:23:32.554Z,9.30
2022-11-12T07:26:04.183Z,11.38
2022-11-12T07:30:59.328Z,41.58
2022-11-12T07:33:27.083Z,37.83
2022-11-12T07:36:04.856Z,27.10
2022-11-12T07:38:33.142Z,18.88
2022-11-12T07:41:05.614Z,27.52
2022-11-12T07:43:36.797Z,25.80
2022-11-12T07:46:10.237Z,17.35
2022-11-12T07:48:38.387Z,15.40
2022-11-12T07:51:13.347Z,13.98
2022-11-12T07:53:41.194Z,15.27
2022-11-12T07:56:07.784Z,14.68
2022-11-12T07:58:34.625Z,17.40
2022-11-12T08:01:23.541Z,22.50
2022-11-12T08:03:49.976Z,15.30
2022-11-12T08:06:16.368Z,12.00
2022-11-12T08:08:42.771Z,9.73
2022-11-12T08:11:09.394Z,16.17
2022-11-12T08:13:35.829Z,14.15
2022-11-12T08:16:02.417Z,11.98
2022-11-12T08:18:29.808Z,13.43
2022-11-12T08:21:03.856Z,9.93
2022-11-12T08:23:30.650Z,12.43
2022-11-12T08:26:07.113Z,14.00
2022-11-12T08:28:35.687Z,15.63
2022-11-12T08:31:07.125Z,14.23
2022-11-12T08:33:34.703Z,14.20
2022-11-12T08:36:09.805Z,14.50
2022-11-12T08:38:36.309Z,14.65
2022-11-12T08:41:04.672Z,12.98
2022-11-12T08:43:31.088Z,9.80
2022-11-12T08:45:59.204Z,10.15
2022-11-12T08:48:26.799Z,13.38
2022-11-12T08:50:53.790Z,14.80
2022-11-12T08:53:22.154Z,13.55
2022-11-12T08:55:48.580Z,19.92
2022-11-12T08:58:15.012Z,18.25
2022-11-12T09:00:43.473Z,16.00
2022-11-12T09:03:15.351Z,15.15
2022-11-12T09:05:42.508Z,12.93
2022-11-12T09:08:12.341Z,19.50
2022-11-12T09:10:39.446Z,12.48
2022-11-12T09:13:06.330Z,16.90
2022-11-12T09:15:37.842Z,14.82
2022-11-12T09:18:08.083Z,14.85
2022-11-12T09:20:34.692Z,22.92
2022-11-12T09:23:08.093Z,23.55
2022-11-12T09:25:35.194Z,19.27
2022-11-12T09:28:13.027Z,19.80
2022-11-12T09:30:43.589Z,27.95
2022-11-12T09:33:10.028Z,17.65
2022-11-12T09:35:36.411Z,20.50
2022-11-12T09:38:02.866Z,19.50
2022-11-12T09:40:45.582Z,27.90
2022-11-12T09:43:34.101Z,20.98
2022-11-12T09:46:26.568Z,21.92
2022-11-12T09:49:21.313Z,24.17
2022-11-12T09:52:23.668Z,41.20
2022-11-12T09:55:01.234Z,26.00
2022-11-12T09:57:27.787Z,25.33
2022-11-12T09:59:54.184Z,22.83
2022-11-12T10:02:29.546Z,21.95
2022-11-12T10:05:12.283Z,28.48
2022-11-12T10:08:19.198Z,24.48
2022-11-12T10:10:52.963Z,24.15
2022-11-12T10:13:31.604Z,30.17
2022-11-12T10:16:40.009Z,25.65
2022-11-12T10:19:18.433Z,29.00
2022-11-12T10:21:56.548Z,29.20
2022-11-12T10:24:24.176Z,27.35
2022-11-12T10:26:52.213Z,29.63
2022-11-12T10:29:36.229Z,35.13
2022-11-12T10:32:03.395Z,34.05
2022-11-12T10:34:31.211Z,37.55
2022-11-12T10:37:11.205Z,32.17
2022-11-12T10:39:42.936Z,32.80
2022-11-12T10:42:16.569Z,37.65
2022-11-12T10:44:44.173Z,30.75
2022-11-12T10:47:25.211Z,30.58
2022-11-12T10:50:10.225Z,33.78
2022-11-12T10:52:37.229Z,34.63
2022-11-12T10:55:25.388Z,31.45
2022-11-12T10:58:13.226Z,30.95
2022-11-12T11:01:07.302Z,29.13
2022-11-12T11:03:36.973Z,26.83
2022-11-12T11:06:07.594Z,27.63
2022-11-12T11:08:46.193Z,28.50
2022-11-12T11:11:31.996Z,28.95
2022-11-12T11:14:40.034Z,21.50
2022-11-12T11:17:15.565Z,24.38
2022-11-12T11:19:42.794Z,28.10
2022-11-12T11:22:47.906Z,29.20
2022-11-12T11:25:35.666Z,25.73
2022-11-12T11:28:23.212Z,25.50
2022-11-12T11:31:30.857Z,26.50
2022-11-12T11:34:21.783Z,25.30
2022-11-12T11:37:03.107Z,24.58
2022-11-12T11:39:45.427Z,22.77
2022-11-12T11:42:23.625Z,22.75
2022-11-12T11:44:55.672Z,29.02
2022-11-12T11:47:59.898Z,20.80
2022-11-12T11:50:30.926Z,23.25
2022-11-12T11:53:22.209Z,22.67
2022-11-12T11:56:02.198Z,20.05
2022-11-12T11:58:43.592Z,26.65
2022-11-12T12:01:34.912Z,18.50
2022-11-12T12:04:07.410Z,21.83
2022-11-12T12:06:45.732Z,21.42
2022-11-12T12:09:43.804Z,21.33
2022-11-12T12:12:32.055Z,27.05
2022-11-12T12:15:22.356Z,24.70
2022-11-12T12:18:11.049Z,23.27
2022-11-12T12:20:53.237Z,19.58
2022-11-12T12:23:29.097Z,17.73
2022-11-12T12:26:00.369Z,18.02
2022-11-12T12:31:07.372Z,19.55
2022-11-12T12:33:44.013Z,20.00
2022-11-12T12:36:18.085Z,21.50
2022-11-12T12:39:03.026Z,22.17
2022-11-12T12:41:37.265Z,18.50
2022-11-12T12:44:06.539Z,20.83
2022-11-12T12:46:40.575Z,28.75
2022-11-12T12:49:11.593Z,32.20
2022-11-12T12:51:38.016Z,24.52
2022-11-12T12:54:04.625Z,19.48
2022-11-12T12:56:31.043Z,21.63
2022-11-12T12:59:03.457Z,22.42
2022-11-12T13:01:34.276Z,50.88
2022-11-12T13:04:08.802Z,26.27
2022-11-12T13:06:45.411Z,27.33
2022-11-12T13:09:14.883Z,26.80
2022-11-12T13:12:00.913Z,29.50
2022-11-12T13:14:36.336Z,27.75
2022-11-12T13:17:04.027Z,25.92
2022-11-12T13:19:39.528Z,34.13
2022-11-12T13:22:18.001Z,27.30
2022-11-12T13:25:20.164Z,29.95
2022-11-12T13:27:47.058Z,33.90
2022-11-12T13:30:13.445Z,27.58
2022-11-12T13:32:48.708Z,27.23
2022-11-12T13:35:22.319Z,33.05
2022-11-12T13:37:54.905Z,27.52
2022-11-12T13:40:33.651Z,27.90
2022-11-12T13:43:19.887Z,27.05
2022-11-12T13:45:57.664Z,34.55
2022-11-12T13:48:30.854Z,27.52
2022-11-12T13:51:03.253Z,24.63
2022-11-12T13:53:32.941Z,24.35
2022-11-12T13:55:59.734Z,27.10
2022-11-12T13:58:31.585Z,28.45
2022-11-12T14:01:00.706Z,28.50
2022-11-12T14:03:32.472Z,25.63
2022-11-12T14:09:10.082Z,25.15
2022-11-12T14:12:13.646Z,27.15
2022-11-12T14:15:13.789Z,27.92
2022-11-12T14:18:12.411Z,28.00
2022-11-12T14:20:40.232Z,33.33
2022-11-12T14:23:24.248Z,30.48
2022-11-12T14:25:56.519Z,33.45
2022-11-12T14:28:41.303Z,32.30
2022-11-12T14:31:14.530Z,27.13
2022-11-12T14:33:41.011Z,29.02
2022-11-12T14:36:14.998Z,34.60
2022-11-12T14:38:48.482Z,32.55
2022-11-12T14:41:22.487Z,29.42
2022-11-12T14:44:11.413Z,26.05
2022-11-12T14:46:50.924Z,43.47
2022-11-12T14:49:20.071Z,34.83
2022-11-12T14:51:56.082Z,38.42
2022-11-12T14:54:36.559Z,36.22
2022-11-12T14:57:04.351Z,38.45
2022-11-12T14:59:31.707Z,30.13
2022-11-12T15:02:28.659Z,33.40
2022-11-12T15:05:04.443Z,39.88
2022-11-12T15:07:34.923Z,38.65
2022-11-12T15:10:31.413Z,35.45
2022-11-12T15:13:03.936Z,33.03
2022-11-12T15:15:31.770Z,31.27
2022-11-12T15:18:07.577Z,28.15
2022-11-12T15:20:34.120Z,41.60
2022-11-12T15:23:00.961Z,35.15
2022-11-12T15:25:31.608Z,38.20
2022-11-12T15:28:33.551Z,36.60
2022-11-12T15:31:18.642Z,34.90
2022-11-12T15:33:45.090Z,36.90
2022-11-12T15:36:20.952Z,34.65
2022-11-12T15:38:50.655Z,32.35
2022-11-12T15:41:30.139Z,42.50
2022-11-12T15:43:56.833Z,33.00
2022-11-12T15:46:23.280Z,40.10
2022-11-12T15:48:55.557Z,31.55
2022-11-12T15:51:22.550Z,40.80
2022-11-12T15:53:49.072Z,43.45
2022-11-12T15:56:19.167Z,51.80
2022-11-12T15:58:45.642Z,38.28
2022-11-12T16:01:12.501Z,46.22
2022-11-12T16:03:39.180Z,44.60
2022-11-12T16:06:09.307Z,36.67
2022-11-12T16:08:35.963Z,35.85
2022-11-12T16:11:02.499Z,36.63
2022-11-12T16:13:33.192Z,36.92
2022-11-12T16:16:04.225Z,37.22
2022-11-12T16:18:30.622Z,43.60
2022-11-12T16:20:57.002Z,44.83
2022-11-12T16:23:23.451Z,36.72
2022-11-12T16:25:49.915Z,41.00
2022-11-12T16:28:18.257Z,50.90
2022-11-12T16:30:46.525Z,49.85
2022-11-12T16:33:13.618Z,54.85
2022-11-12T16:35:40.348Z,54.13
2022-11-12T16:38:14.395Z,58.10
2022-11-12T16:40:41.267Z,65.40
2022-11-12T16:43:07.788Z,51.35
2022-11-12T16:45:37.977Z,71.30
2022-11-12T16:48:12.271Z,95.50
2022-11-12T16:50:39.011Z,62.80
2022-11-12T16:53:05.419Z,61.30
2022-11-12T16:55:31.848Z,70.47
2022-11-12T16:57:58.283Z,61.10
2022-11-12T17:00:24.816Z,68.63
2022-11-12T17:02:53.590Z,55.55
2022-11-12T17:05:25.715Z,53.92
2022-11-12T17:07:57.178Z,53.75
2022-11-12T17:10:24.004Z,61.15
2022-11-12T17:12:52.210Z,59.58
2022-11-12T17:15:19.067Z,52.95
2022-11-12T17:17:45.505Z,52.63
2022-11-12T17:20:12.005Z,40.85
2022-11-12T17:22:38.460Z,52.80
2022-11-12T17:25:06.316Z,63.05
2022-11-12T17:27:32.727Z,59.00
2022-11-12T17:29:59.150Z,57.33
2022-11-12T17:32:25.650Z,53.45
2022-11-12T17:34:52.083Z,47.72
2022-11-12T17:37:18.595Z,58.67
2022-11-12T17:39:45.047Z,54.25
2022-11-12T17:42:11.503Z,48.10
2022-11-12T17:44:37.943Z,51.88
2022-11-12T17:47:04.386Z,49.55
2022-11-12T17:49:30.937Z,51.65
2022-11-12T17:51:57.363Z,53.80
2022-11-12T17:54:24.117Z,59.33
2022-11-12T17:56:50.533Z,58.40
2022-11-12T17:59:16.994Z,62.72
2022-11-12T18:01:43.520Z,55.95
2022-11-12T18:04:10.462Z,52.90
2022-11-12T18:06:37.066Z,49.00
2022-11-12T18:09:08.849Z,52.63
2022-11-12T18:14:09.817Z,53.75
2022-11-12T18:16:36.700Z,53.17
2022-11-12T18:19:03.417Z,55.33
2022-11-12T18:21:29.831Z,51.30
2022-11-12T18:23:56.423Z,58.70
2022-11-12T18:26:22.890Z,109.70
2022-11-12T18:28:56.389Z,77.25
2022-11-12T18:31:24.519Z,95.25
2022-11-12T18:33:51.655Z,63.80
2022-11-12T18:36:20.914Z,50.85
2022-11-12T18:38:50.048Z,59.70
2022-11-12T18:41:18.284Z,55.28
2022-11-12T18:43:44.733Z,54.70
2022-11-12T18:46:11.692Z,68.30
2022-11-12T18:48:38.970Z,62.78
2022-11-12T18:51:08.890Z,61.13
2022-11-12T18:53:36.831Z,54.30
2022-11-12T18:56:08.598Z,52.72
2022-11-12T18:58:35.677Z,57.70
2022-11-12T19:01:08.675Z,55.65
2022-11-12T19:03:35.992Z,56.13
2022-11-12T19:06:05.216Z,56.95
2022-11-12T19:08:31.686Z,60.70
2022-11-12T19:10:59.576Z,65.97
2022-11-12T19:13:26.885Z,57.95
2022-11-12T19:15:54.091Z,67.88
2022-11-12T19:18:20.733Z,71.60
2022-11-12T19:20:48.545Z,61.40
2022-11-12T19:23:15.293Z,64.40
2022-11-12T19:25:41.972Z,68.18
2022-11-12T19:28:08.476Z,64.15
2022-11-12T19:30:34.882Z,61.33
2022-11-12T19:33:01.272Z,62.53
2022-11-12T19:35:27.684Z,62.30
2022-11-12T19:37:54.120Z,60.83
2022-11-12T19:40:20.497Z,62.78
2022-11-12T19:42:48.006Z,61.90
2022-11-12T19:45:14.512Z,60.58
2022-11-12T19:47:40.903Z,56.83
2022-11-12T19:50:07.951Z,57.55
2022-11-12T19:52:34.374Z,53.63
2022-11-12T19:55:01.009Z,55.38
2022-11-12T19:57:29.008Z,55.90
2022-11-12T19:59:55.494Z,65.28
2022-11-12T20:02:21.898Z,57.10
2022-11-12T20:04:48.291Z,49.92
2022-11-12T20:07:14.749Z,59.25
2022-11-12T20:09:41.316Z,57.00
2022-11-12T20:12:07.924Z,53.63
2022-11-12T20:14:34.558Z,54.53
2022-11-12T20:17:01.026Z,51.05
2022-11-12T20:19:27.825Z,54.17
2022-11-12T20:21:54.494Z,59.75
2022-11-12T20:24:20.975Z,55.88
2022-11-12T20:26:47.417Z,56.42
2022-11-12T20:29:13.831Z,54.40
2022-11-12T20:31:41.903Z,59.08
2022-11-12T20:34:08.395Z,52.80
2022-11-12T20:36:34.805Z,55.92
2022-11-12T20:39:02.104Z,55.45
2022-11-12T20:41:28.636Z,53.72
2022-11-12T20:44:00.269Z,44.53
2022-11-12T20:48:56.403Z,52.95
2022-11-12T20:51:26.025Z,54.40
2022-11-12T20:53:58.857Z,58.17
2022-11-12T20:56:28.105Z,55.22
2022-11-12T20:58:54.513Z,59.28
2022-11-12T21:01:23.089Z,52.95
2022-11-12T21:03:49.752Z,51.15
2022-11-12T21:06:19.289Z,52.70
2022-11-12T21:08:45.784Z,60.95
2022-11-12T21:11:14.564Z,55.63
2022-11-12T21:13:41.704Z,53.55
2022-11-12T21:16:09.861Z,52.58
2022-11-12T21:18:37.086Z,57.63
2022-11-12T21:21:07.899Z,49.58
2022-11-12T21:23:37.010Z,53.83
2022-11-12T21:26:09.971Z,52.58
2022-11-12T21:28:38.187Z,56.13
2022-11-12T21:31:06.592Z,59.67
2022-11-12T21:33:33.198Z,52.72
2022-11-12T21:35:59.634Z,51.47
2022-11-12T21:38:27.671Z,53.10
2022-11-12T21:41:07.924Z,55.20
2022-11-12T21:43:38.609Z,58.38
2022-11-12T21:46:19.431Z,52.03
2022-11-12T21:48:49.906Z,51.70
2022-11-12T21:51:21.114Z,58.03
2022-11-12T21:53:47.664Z,57.92
2022-11-12T21:56:16.740Z,54.10
2022-11-12T21:58:44.173Z,56.83
2022-11-12T22:01:17.731Z,56.13
2022-11-12T22:03:44.864Z,56.88
2022-11-12T22:06:12.011Z,65.20
2022-11-12T22:08:39.309Z,47.75
2022-11-12T22:11:08.372Z,51.55
2022-11-12T22:13:35.627Z,53.85
2022-11-12T22:16:25.772Z,54.85
2022-11-12T22:18:54.395Z,54.42
2022-11-12T22:21:23.253Z,53.10
2022-11-12T22:23:49.901Z,49.25
2022-11-12T22:26:20.600Z,54.53
2022-11-12T22:28:47.283Z,62.40
2022-11-12T22:31:15.950Z,62.38
2022-11-12T22:33:42.473Z,52.10
2022-11-12T22:36:20.925Z,54.35
2022-11-12T22:38:50.126Z,58.15
2022-11-12T22:41:22.130Z,50.22
2022-11-12T22:43:56.803Z,49.88
2022-11-12T22:46:25.874Z,52.25
2022-11-12T22:48:52.504Z,49.72
2022-11-12T22:51:21.731Z,50.35
2022-11-12T22:53:48.325Z,45.22
2022-11-12T22:56:16.432Z,50.45
2022-11-12T22:58:45.289Z,57.85
2022-11-12T23:01:29.728Z,52.83
2022-11-12T23:03:58.641Z,45.90
2022-11-12T23:06:25.656Z,53.33
2022-11-12T23:08:56.537Z,57.85
2022-11-12T23:11:26.100Z,53.00
2022-11-12T23:13:54.011Z,51.60
2022-11-12T23:16:26.149Z,55.20
2022-11-12T23:18:53.133Z,51.22
2022-11-12T23:21:23.077Z,64.13
2022-11-12T23:23:49.932Z,49.22
2022-11-12T23:26:19.300Z,51.25
2022-11-12T23:28:45.867Z,51.17
2022-11-12T23:31:24.185Z,49.78
2022-11-12T23:33:53.033Z,46.67
2022-11-12T23:36:20.602Z,47.92
2022-11-12T23:38:47.488Z,47.70
2022-11-12T23:41:16.910Z,46.63
2022-11-12T23:43:43.475Z,49.15
2022-11-12T23:46:10.773Z,39.92
2022-11-12T23:48:37.322Z,45.45
2022-11-12T23:51:14.934Z,42.78
2022-11-12T23:53:41.410Z,37.42
2022-11-12T23:56:09.825Z,39.97
2022-11-12T23:58:38.580Z,46.60
